Time;durP1;ratioP1;P1;durP2;ratioP2;P2;SDS_P1;SDS_P2;PMS_P1;PMS_P2;Temp;Humidity;BMP_temperature;BMP_pressure;BME280_temperature;BME280_humidity;BME280_pressure;Samples;Min_cycle;Max_cycle;Signal;HPM_P1;HPM_P2
2020/12/04 00:00:54;;;;;;;5.97;3.55;;;30.60;83.90;;;;;;5138593;27;20019;-62
2020/12/04 00:03:22;;;;;;;5.32;3.63;;;30.70;83.20;;;;;;5137704;27;20023;-62
2020/12/04 00:05:50;;;;;;;6.93;3.65;;;30.50;81.50;;;;;;5120441;27;20106;-61
2020/12/04 00:08:18;;;;;;;9.10;3.92;;;30.80;83.10;;;;;;5138020;27;20027;-62
2020/12/04 00:10:46;;;;;;;5.47;3.58;;;30.90;83.00;;;;;;5138071;27;20498;-62
2020/12/04 00:13:14;;;;;;;7.28;4.80;;;31.10;81.40;;;;;;5138078;27;20023;-61
2020/12/04 00:15:42;;;;;;;9.00;4.07;;;31.00;82.10;;;;;;5137971;27;20035;-62
2020/12/04 00:18:10;;;;;;;6.57;4.28;;;30.90;80.40;;;;;;5137803;27;20027;-61
2020/12/04 00:20:38;;;;;;;7.55;3.92;;;30.70;80.30;;;;;;5137592;27;20387;-61
2020/12/04 00:23:06;;;;;;;6.38;3.75;;;31.00;79.00;;;;;;5137341;27;20019;-61
2020/12/04 00:25:34;;;;;;;7.90;3.83;;;31.20;78.60;;;;;;5118645;27;20027;-61
2020/12/04 00:28:02;;;;;;;6.55;3.45;;;31.00;79.40;;;;;;5137464;27;20098;-62
2020/12/04 00:30:30;;;;;;;7.38;4.20;;;31.10;78.90;;;;;;5137593;27;20448;-62
2020/12/04 00:32:58;;;;;;;6.15;3.78;;;31.40;79.00;;;;;;5137242;27;20076;-63
2020/12/04 00:35:26;;;;;;;8.20;3.45;;;31.60;77.90;;;;;;5137372;27;20024;-62
2020/12/04 00:37:54;;;;;;;4.90;3.58;;;31.90;78.00;;;;;;5137430;27;20029;-61
2020/12/04 00:40:22;;;;;;;5.80;3.60;;;32.20;77.70;;;;;;5137215;27;20090;-60
2020/12/04 00:42:50;;;;;;;5.75;3.88;;;32.20;75.70;;;;;;5137459;27;20432;-60
2020/12/04 00:45:18;;;;;;;6.13;4.03;;;31.60;74.50;;;;;;5136992;27;20068;-60
2020/12/04 00:47:46;;;;;;;9.00;3.80;;;31.80;76.60;;;;;;5137390;27;20058;-60
2020/12/04 00:50:15;;;;;;;8.38;4.57;;;31.90;76.90;;;;;;5137262;27;20016;-59
2020/12/04 00:52:43;;;;;;;6.60;4.32;;;32.20;76.50;;;;;;5137289;27;20420;-60
2020/12/04 00:55:10;;;;;;;5.25;3.72;;;32.30;73.90;;;;;;5137096;27;20494;-60
2020/12/04 00:57:38;;;;;;;6.82;3.75;;;32.10;74.40;;;;;;5136628;27;20043;-60
2020/12/04 01:00:07;;;;;;;7.13;4.05;;;32.30;77.00;;;;;;5136980;27;20420;-60
2020/12/04 01:02:35;;;;;;;6.25;3.85;;;32.60;75.20;;;;;;5136914;27;20356;-60
2020/12/04 01:05:03;;;;;;;7.22;4.07;;;32.60;74.00;;;;;;5136734;27;20020;-60
2020/12/04 01:07:31;;;;;;;6.78;4.25;;;32.40;74.30;;;;;;5118724;27;20027;-60
2020/12/04 01:09:59;;;;;;;5.25;3.60;;;32.30;74.40;;;;;;5136615;27;20094;-60
2020/12/04 01:12:27;;;;;;;5.28;3.67;;;32.40;74.50;;;;;;5136835;27;20027;-60
2020/12/04 01:14:55;;;;;;;6.20;4.28;;;32.60;72.90;;;;;;5136813;27;20019;-60
2020/12/04 01:17:23;;;;;;;6.35;3.42;;;32.80;74.40;;;;;;5136472;27;20495;-60
2020/12/04 01:19:51;;;;;;;6.47;3.53;;;33.10;72.50;;;;;;5136661;27;20110;-61
2020/12/04 01:22:18;;;;;;;9.43;4.28;;;33.30;72.10;;;;;;5136756;27;20019;-60
2020/12/04 01:24:47;;;;;;;9.55;4.93;;;33.30;79.50;;;;;;5136707;27;20058;-60
2020/12/04 01:27:16;;;;;;;8.95;4.75;;;33.00;85.50;;;;;;5118271;27;20043;-61
2020/12/04 01:29:45;;;;;;;12.40;4.65;;;32.60;89.10;;;;;;5136533;27;20072;-60
2020/12/04 01:32:13;;;;;;;11.98;4.57;;;31.70;91.10;;;;;;5136062;27;20153;-60
2020/12/04 01:34:41;;;;;;;14.43;4.72;;;31.20;93.30;;;;;;5135484;27;20411;-60
2020/12/04 01:37:09;;;;;;;10.43;4.90;;;31.00;94.10;;;;;;5136283;27;20023;-60
2020/12/04 01:39:37;;;;;;;10.98;4.88;;;30.90;94.70;;;;;;5117621;27;20115;-60
2020/12/04 01:42:05;;;;;;;13.85;4.95;;;30.80;94.90;;;;;;5136259;27;20027;-60
2020/12/04 01:44:58;;;;;;;10.35;4.30;;;30.50;95.40;;;;;;5135949;27;20023;-59
2020/12/04 01:47:26;;;;;;;11.65;4.38;;;30.30;96.10;;;;;;5135442;27;20027;-59
2020/12/04 01:49:54;;;;;;;11.25;4.90;;;29.90;96.90;;;;;;5135184;27;20023;-61
2020/12/04 01:52:25;;;;;;;11.68;4.47;;;30.20;97.30;;;;;;5135539;27;20023;-60
2020/12/04 01:54:53;;;;;;;9.55;4.82;;;30.40;97.20;;;;;;5135991;27;20030;-60
2020/12/04 01:57:27;;;;;;;14.48;4.97;;;30.60;97.20;;;;;;5135609;27;20426;-60
2020/12/04 01:59:54;;;;;;;13.52;5.03;;;30.70;96.30;;;;;;5135917;27;20129;-60
2020/12/04 02:02:25;;;;;;;9.23;5.15;;;30.60;96.00;;;;;;5135581;27;20054;-60
2020/12/04 02:04:53;;;;;;;12.52;5.13;;;30.30;96.60;;;;;;5134435;27;20425;-60
2020/12/04 02:07:52;;;;;;;11.10;4.93;;;30.30;97.20;;;;;;5135059;27;20024;-59
2020/12/04 02:10:29;;;;;;;10.52;4.80;;;30.10;97.50;;;;;;5104192;28;20468;-59
2020/12/04 02:12:57;;;;;;;10.07;5.30;;;30.20;97.60;;;;;;5112248;28;20433;-60
2020/12/04 02:15:26;;;;;;;9.77;5.15;;;30.10;97.50;;;;;;5112196;28;20404;-59
2020/12/04 02:17:58;;;;;;;10.25;5.00;;;30.00;97.20;;;;;;5111962;28;20418;-60
2020/12/04 02:20:26;;;;;;;11.75;5.35;;;30.10;97.80;;;;;;5111766;28;20089;-60
2020/12/04 02:22:54;;;;;;;11.68;5.32;;;30.00;97.50;;;;;;5111638;28;20415;-60
2020/12/04 02:25:22;;;;;;;10.48;5.20;;;29.70;98.00;;;;;;5111811;28;20546;-60
2020/12/04 02:27:51;;;;;;;11.32;4.60;;;29.90;97.90;;;;;;5112050;28;20020;-60
2020/12/04 02:30:34;;;;;;;12.75;5.43;;;29.70;97.70;;;;;;5112437;28;20542;-61
2020/12/04 02:33:03;;;;;;;11.32;5.45;;;29.50;97.90;;;;;;5112395;28;20075;-59
2020/12/04 02:35:32;;;;;;;11.32;5.35;;;29.00;98.20;;;;;;5112344;28;20122;-60
2020/12/04 02:37:59;;;;;;;11.40;5.18;;;29.00;98.90;;;;;;5096056;28;20113;-60
2020/12/04 02:40:28;;;;;;;10.65;5.57;;;29.30;98.60;;;;;;5112501;28;20027;-60
2020/12/04 02:42:55;;;;;;;9.18;6.05;;;29.20;98.40;;;;;;5132110;27;20099;-60
2020/12/04 02:45:24;;;;;;;14.70;5.88;;;28.90;98.80;;;;;;5134819;27;20030;-60
2020/12/04 02:47:52;;;;;;;12.70;6.15;;;29.10;98.80;;;;;;5134794;27;20027;-60
2020/12/04 02:50:20;;;;;;;9.73;5.60;;;29.50;98.30;;;;;;5134604;27;20023;-61
2020/12/04 02:52:48;;;;;;;10.02;6.00;;;29.70;98.00;;;;;;5082059;27;20032;-61
2020/12/04 02:55:16;;;;;;;12.13;6.18;;;29.90;96.10;;;;;;5134595;27;20099;-61
2020/12/04 02:57:44;;;;;;;12.73;6.28;;;29.80;97.20;;;;;;5114247;28;20035;-61
2020/12/04 03:00:12;;;;;;;12.38;5.95;;;29.80;97.00;;;;;;5062674;28;20110;-61
2020/12/04 03:02:40;;;;;;;12.50;6.18;;;30.20;97.00;;;;;;5114138;28;20031;-60
2020/12/04 03:05:08;;;;;;;11.55;5.55;;;30.40;97.00;;;;;;5078939;28;20039;-60
2020/12/04 03:07:37;;;;;;;10.98;5.65;;;30.60;97.00;;;;;;5114189;28;20019;-60
2020/12/04 03:10:09;;;;;;;12.90;6.28;;;30.70;96.60;;;;;;5113743;28;20033;-60
2020/12/04 03:12:39;;;;;;;13.05;6.88;;;30.90;96.30;;;;;;5113951;28;20380;-60
2020/12/04 03:15:08;;;;;;;10.35;6.15;;;30.90;96.00;;;;;;5113825;28;20567;-60
2020/12/04 03:17:36;;;;;;;12.90;7.20;;;30.80;95.80;;;;;;5113241;28;20395;-60
2020/12/04 03:20:05;;;;;;;16.25;6.72;;;31.10;95.80;;;;;;5113642;28;20035;-60
2020/12/04 03:22:33;;;;;;;11.50;6.20;;;30.90;95.60;;;;;;5114021;28;20498;-60
2020/12/04 03:25:02;;;;;;;11.52;6.10;;;30.90;95.50;;;;;;5113228;28;20139;-60
2020/12/04 03:27:30;;;;;;;10.27;6.15;;;30.90;95.60;;;;;;5077400;28;20040;-59
2020/12/04 03:29:59;;;;;;;11.48;6.15;;;30.70;94.80;;;;;;5112898;28;20028;-59
2020/12/04 03:32:27;;;;;;;10.02;6.47;;;30.70;94.30;;;;;;5113527;28;20023;-59
2020/12/04 03:34:56;;;;;;;11.98;5.97;;;30.80;94.80;;;;;;5113231;28;20030;-60
2020/12/04 03:37:26;;;;;;;10.65;6.38;;;30.90;94.90;;;;;;5113500;28;20051;-60
2020/12/04 03:39:54;;;;;;;9.52;5.93;;;30.60;94.10;;;;;;5114529;28;20107;-60
2020/12/04 03:42:23;;;;;;;18.45;6.70;;;30.50;93.90;;;;;;5094705;28;20539;-59
2020/12/04 03:44:51;;;;;;;10.95;6.07;;;30.30;95.10;;;;;;5113606;28;20016;-60
2020/12/04 03:47:19;;;;;;;11.60;5.95;;;30.20;95.10;;;;;;5113645;28;20023;-60
2020/12/04 03:49:48;;;;;;;10.10;5.47;;;30.10;95.60;;;;;;5113834;28;20070;-61
2020/12/04 03:52:20;;;;;;;12.60;6.18;;;30.00;95.90;;;;;;5104993;28;20027;-60
2020/12/04 03:54:49;;;;;;;12.32;5.85;;;29.90;95.10;;;;;;5113383;28;20039;-60
2020/12/04 03:57:17;;;;;;;9.57;5.53;;;30.00;95.20;;;;;;5113400;28;20087;-61
2020/12/04 03:59:46;;;;;;;13.48;6.20;;;30.10;95.00;;;;;;5113225;28;20107;-61
2020/12/04 04:02:14;;;;;;;10.07;5.70;;;30.00;95.30;;;;;;5077886;28;20035;-60
2020/12/04 04:04:42;;;;;;;8.70;5.35;;;30.00;93.50;;;;;;5113613;28;20047;-61
2020/12/04 04:07:11;;;;;;;10.73;4.90;;;29.60;94.80;;;;;;5113089;28;20074;-60
2020/12/04 04:09:39;;;;;;;7.15;4.78;;;29.80;93.40;;;;;;5112650;28;20030;-61
2020/12/04 04:12:07;;;;;;;10.85;5.15;;;29.80;93.20;;;;;;5112951;28;20033;-61
2020/12/04 04:14:36;;;;;;;6.65;4.25;;;30.10;93.40;;;;;;5113459;28;20024;-60
2020/12/04 04:17:04;;;;;;;8.07;4.40;;;30.50;91.60;;;;;;5094772;28;20036;-61
2020/12/04 04:19:32;;;;;;;7.75;3.75;;;30.70;90.80;;;;;;5113417;28;20045;-61
2020/12/04 04:22:00;;;;;;;6.90;3.38;;;30.90;90.00;;;;;;5113208;28;20471;-61
2020/12/04 04:24:29;;;;;;;7.40;3.65;;;31.00;88.40;;;;;;5113440;28;20029;-60
2020/12/04 04:26:57;;;;;;;7.70;3.30;;;31.10;85.90;;;;;;5094395;28;20119;-60
2020/12/04 04:29:25;;;;;;;5.32;3.00;;;31.00;87.80;;;;;;5079947;28;20043;-61
2020/12/04 04:31:53;;;;;;;5.43;3.03;;;31.00;86.00;;;;;;5098019;28;20444;-60
2020/12/04 04:34:21;;;;;;;7.80;2.70;;;30.60;87.80;;;;;;5116975;28;20024;-60
2020/12/04 04:36:50;;;;;;;6.40;3.22;;;30.70;88.60;;;;;;5116982;28;20028;-60
2020/12/04 04:39:19;;;;;;;5.07;2.75;;;30.20;89.20;;;;;;5064489;28;20110;-60
2020/12/04 04:41:53;;;;;;;6.30;2.78;;;30.30;90.20;;;;;;5116883;28;20102;-60
2020/12/04 04:44:22;;;;;;;6.43;2.80;;;30.50;90.00;;;;;;5100387;28;20027;-61
2020/12/04 04:47:06;;;;;;;6.82;3.10;;;30.70;89.70;;;;;;5116782;28;20435;-60
2020/12/04 04:49:41;;;;;;;6.13;2.58;;;30.70;89.30;;;;;;5116655;28;20020;-60
2020/12/04 04:52:09;;;;;;;6.00;2.70;;;30.80;89.30;;;;;;5081273;28;20455;-60
2020/12/04 04:54:42;;;;;;;5.20;2.20;;;30.80;85.50;;;;;;5116229;28;20313;-61
2020/12/04 04:57:11;;;;;;;8.75;3.28;;;30.80;85.40;;;;;;5063203;28;20055;-60
2020/12/04 04:59:41;;;;;;;5.28;2.85;;;30.70;86.70;;;;;;5115914;28;20023;-60
2020/12/04 05:02:13;;;;;;;8.05;3.35;;;30.60;89.20;;;;;;5116092;28;20016;-60
2020/12/04 05:04:51;;;;;;;6.78;2.70;;;30.80;89.80;;;;;;5116295;28;20032;-61
2020/12/04 05:07:33;;;;;;;9.43;3.70;;;30.80;91.20;;;;;;5116275;28;20476;-60
2020/12/04 05:10:21;;;;;;;9.27;3.30;;;30.90;92.00;;;;;;5080374;28;20050;-60
2020/12/04 05:13:08;;;;;;;10.48;3.30;;;30.90;92.80;;;;;;5053848;28;20079;-60
2020/12/04 05:15:36;;;;;;;9.45;3.53;;;30.60;93.30;;;;;;5033520;28;20040;-60
2020/12/04 05:18:11;;;;;;;10.43;3.53;;;30.60;93.40;;;;;;5033079;28;20030;-60
2020/12/04 05:20:43;;;;;;;9.13;3.38;;;30.30;93.70;;;;;;5000253;28;20124;-60
2020/12/04 05:23:12;;;;;;;8.88;3.45;;;30.20;94.80;;;;;;5033249;28;20030;-60
2020/12/04 05:25:43;;;;;;;10.32;3.17;;;30.50;93.80;;;;;;5032897;28;20040;-60
2020/12/04 05:28:19;;;;;;;7.78;3.25;;;30.60;93.00;;;;;;5032814;28;20049;-59
2020/12/04 05:30:51;;;;;;;7.15;2.65;;;30.90;93.10;;;;;;5032798;28;20154;-61
2020/12/04 05:33:20;;;;;;;7.40;3.05;;;31.00;92.90;;;;;;5032996;28;20045;-61
2020/12/04 05:35:54;;;;;;;7.10;3.10;;;31.20;92.30;;;;;;5032789;28;20121;-61
2020/12/04 05:38:22;;;;;;;8.27;3.20;;;31.10;92.30;;;;;;5032656;28;20044;-60
2020/12/04 05:41:05;;;;;;;10.82;2.92;;;31.20;91.50;;;;;;5031892;28;20029;-63
2020/12/04 05:43:35;;;;;;;8.40;2.63;;;31.20;91.10;;;;;;5049958;28;20033;-59
2020/12/04 05:46:26;;;;;;;8.80;2.67;;;31.20;90.50;;;;;;5085468;28;20086;-60
2020/12/04 05:49:13;;;;;;;6.97;2.42;;;31.10;91.60;;;;;;5052565;28;20120;-63
2020/12/04 05:51:41;;;;;;;8.13;2.83;;;31.50;90.80;;;;;;4999506;28;20045;-63
2020/12/04 05:54:10;;;;;;;7.70;3.08;;;31.70;91.00;;;;;;5032548;28;20044;-64
2020/12/04 05:56:40;;;;;;;9.43;2.78;;;31.50;90.70;;;;;;5050198;28;20488;-63
2020/12/04 05:59:16;;;;;;;8.25;2.65;;;31.40;91.10;;;;;;5072489;28;20037;-62
2020/12/04 06:01:47;;;;;;;7.30;2.83;;;31.50;90.70;;;;;;5072923;28;20465;-62
2020/12/04 06:04:20;;;;;;;7.28;2.80;;;31.30;90.80;;;;;;5071908;28;20087;-60
2020/12/04 06:06:51;;;;;;;8.43;2.35;;;31.10;90.90;;;;;;5072205;28;20082;-60
2020/12/04 06:09:21;;;;;;;6.88;2.90;;;31.10;90.60;;;;;;5072113;28;20090;-60
2020/12/04 06:11:49;;;;;;;6.10;2.55;;;30.90;89.10;;;;;;5072143;28;20028;-60
2020/12/04 06:14:22;;;;;;;7.32;2.95;;;30.30;90.80;;;;;;5072129;28;20043;-60
2020/12/04 06:17:11;;;;;;;12.27;3.55;;;30.50;91.10;;;;;;5071796;28;20037;-60
2020/12/04 06:19:41;;;;;;;10.15;3.10;;;30.80;91.50;;;;;;5049612;28;20037;-62
2020/12/04 06:22:16;;;;;;;7.38;2.92;;;30.80;92.00;;;;;;5054635;28;20112;-61
2020/12/04 06:25:04;;;;;;;7.90;2.83;;;30.90;91.70;;;;;;5072407;28;20036;-62
2020/12/04 06:27:51;;;;;;;9.20;2.75;;;31.00;91.60;;;;;;5031823;28;20574;-62
2020/12/04 06:30:20;;;;;;;8.63;3.08;;;31.20;91.50;;;;;;5012110;28;20376;-62
2020/12/04 06:32:53;;;;;;;6.70;2.65;;;31.60;91.40;;;;;;4995972;28;20065;-61
2020/12/04 06:35:43;;;;;;;7.95;2.40;;;31.60;90.00;;;;;;5012160;28;20414;-62
2020/12/04 06:38:40;;;;;;;6.68;2.83;;;31.60;87.60;;;;;;4992257;28;20057;-62
2020/12/04 06:41:29;;;;;;;6.22;2.67;;;31.80;86.30;;;;;;4937664;29;20045;-62
2020/12/04 06:44:00;;;;;;;7.10;2.27;;;32.00;84.80;;;;;;4916019;29;20048;-62
2020/12/04 06:46:41;;;;;;;10.07;2.72;;;32.40;82.20;;;;;;4884757;29;20038;-62
2020/12/04 06:49:22;;;;;;;8.07;2.10;;;32.60;80.70;;;;;;4915439;29;20451;-62
2020/12/04 06:52:18;;;;;;;6.38;2.30;;;32.70;78.60;;;;;;4934069;29;20046;-62
2020/12/04 06:54:48;;;;;;;6.28;2.17;;;32.90;77.30;;;;;;4918152;29;20091;-61
2020/12/04 06:57:19;;;;;;;6.70;1.98;;;33.00;77.30;;;;;;4918085;29;20043;-61
2020/12/04 06:59:48;;;;;;;8.40;2.40;;;33.50;76.10;;;;;;4972655;28;20038;-61
2020/12/04 07:02:18;;;;;;;6.53;1.88;;;33.70;71.80;;;;;;4972657;28;20027;-61
2020/12/04 07:04:50;;;;;;;6.47;2.22;;;33.40;72.20;;;;;;4972718;28;20451;-62
2020/12/04 07:07:21;;;;;;;7.72;2.47;;;32.80;71.60;;;;;;4972664;28;20035;-62
2020/12/04 07:10:08;;;;;;;6.05;2.10;;;32.10;72.20;;;;;;5011870;28;20076;-63
2020/12/04 07:12:36;;;;;;;4.65;1.75;;;31.20;73.60;;;;;;5002564;28;20062;-60
2020/12/04 07:15:04;;;;;;;7.32;1.98;;;30.40;75.30;;;;;;5044403;28;20032;-60
2020/12/04 07:17:32;;;;;;;7.32;2.00;;;29.80;75.30;;;;;;5070958;28;20412;-61
2020/12/04 07:20:00;;;;;;;5.30;1.75;;;29.50;73.80;;;;;;5070818;28;20025;-61
2020/12/04 07:22:29;;;;;;;7.10;2.00;;;29.20;75.50;;;;;;5016655;28;20055;-62
2020/12/04 07:24:57;;;;;;;5.85;1.95;;;29.20;76.00;;;;;;5051629;28;20031;-61
2020/12/04 07:27:31;;;;;;;5.15;2.05;;;29.00;76.00;;;;;;5071352;28;20025;-61
2020/12/04 07:29:59;;;;;;;7.20;2.25;;;28.80;74.30;;;;;;5070953;28;20021;-60
2020/12/04 07:32:28;;;;;;;5.22;2.10;;;28.60;75.60;;;;;;5071549;28;20033;-61
2020/12/04 07:34:56;;;;;;;5.20;1.80;;;28.50;74.90;;;;;;5022165;28;20143;-61
2020/12/04 07:37:28;;;;;;;4.72;1.60;;;28.50;75.50;;;;;;5070918;28;20040;-62
2020/12/04 07:39:56;;;;;;;5.40;1.85;;;28.40;75.50;;;;;;5062553;28;20466;-61
2020/12/04 07:42:25;;;;;;;4.88;2.20;;;28.40;74.60;;;;;;5056048;28;20128;-61
2020/12/04 07:44:54;;;;;;;8.93;1.92;;;28.20;75.30;;;;;;5134233;28;20486;-61
2020/12/04 07:47:23;;;;;;;5.93;1.80;;;28.20;75.10;;;;;;5133849;28;20102;-61
2020/12/04 07:49:53;;;;;;;4.15;1.90;;;28.50;74.30;;;;;;5134411;28;20412;-61
2020/12/04 07:52:25;;;;;;;9.57;2.30;;;28.80;76.00;;;;;;5133917;28;20383;-62
2020/12/04 07:55:11;;;;;;;6.40;2.63;;;29.70;76.80;;;;;;5115923;28;20100;-62
2020/12/04 07:58:03;;;;;;;7.80;2.55;;;29.70;76.30;;;;;;5115544;28;20393;-61
2020/12/04 08:00:35;;;;;;;6.38;2.55;;;29.60;77.10;;;;;;5105041;28;20046;-61
2020/12/04 08:03:11;;;;;;;7.20;2.20;;;28.80;76.80;;;;;;5111745;28;20134;-62
2020/12/04 08:05:40;;;;;;;5.32;2.28;;;28.30;77.90;;;;;;5115478;28;20035;-64
2020/12/04 08:08:08;;;;;;;9.23;2.70;;;27.80;79.80;;;;;;5115082;28;20038;-63
2020/12/04 08:10:37;;;;;;;6.90;2.15;;;27.40;81.10;;;;;;5115297;28;20039;-63
2020/12/04 08:13:08;;;;;;;4.25;1.80;;;27.10;83.00;;;;;;5115587;28;20491;-63
2020/12/04 08:15:42;;;;;;;7.57;2.63;;;26.80;83.30;;;;;;5115512;28;20111;-63
2020/12/04 08:18:10;;;;;;;6.13;2.17;;;26.60;82.40;;;;;;5114851;28;20106;-63
2020/12/04 08:20:39;;;;;;;7.72;2.53;;;26.50;84.80;;;;;;5115036;28;20119;-63
2020/12/04 08:23:07;;;;;;;4.43;2.53;;;26.40;85.40;;;;;;5115515;28;20019;-63
2020/12/04 08:25:35;;;;;;;6.28;2.92;;;26.20;85.90;;;;;;5114866;28;20027;-63
2020/12/04 08:28:07;;;;;;;9.88;2.70;;;26.00;86.80;;;;;;5098075;28;20020;-64
2020/12/04 08:30:40;;;;;;;7.93;2.60;;;25.90;87.50;;;;;;5115100;28;20052;-64
2020/12/04 08:33:09;;;;;;;8.90;2.58;;;25.80;88.00;;;;;;5116988;27;20430;-64
2020/12/04 08:35:40;;;;;;;6.38;2.30;;;25.70;88.90;;;;;;5137621;27;20378;-64
2020/12/04 08:38:14;;;;;;;5.50;2.30;;;25.60;89.70;;;;;;5137464;27;20023;-63
2020/12/04 08:40:45;;;;;;;7.60;2.50;;;25.50;90.20;;;;;;5137526;27;20157;-63
2020/12/04 08:43:16;;;;;;;6.53;2.45;;;25.40;89.90;;;;;;5137493;27;20030;-63
2020/12/04 08:45:46;;;;;;;7.47;3.00;;;25.30;90.00;;;;;;5137477;27;20042;-63
2020/12/04 08:48:19;;;;;;;6.72;2.60;;;25.20;90.10;;;;;;5138164;27;20368;-63
2020/12/04 08:50:53;;;;;;;9.70;2.65;;;25.20;90.50;;;;;;5137298;27;20023;-63
2020/12/04 08:53:23;;;;;;;7.43;2.92;;;25.10;90.60;;;;;;5118633;27;20451;-64
2020/12/04 08:55:56;;;;;;;6.72;2.50;;;25.00;89.80;;;;;;5118444;27;20035;-64
2020/12/04 08:58:27;;;;;;;7.15;2.75;;;24.90;88.80;;;;;;5118257;27;20467;-63
2020/12/04 09:00:55;;;;;;;;;;;24.80;88.70;;;;;;5137374;27;20026;-60
2020/12/04 09:03:26;;;;;;;7.30;2.33;;;24.70;88.20;;;;;;5118382;27;19903;-63
2020/12/04 09:05:55;;;;;;;6.18;2.22;;;24.60;87.60;;;;;;5137022;27;20019;-61
2020/12/04 09:08:24;;;;;;;6.82;2.33;;;24.40;88.40;;;;;;5136806;27;20494;-63
2020/12/04 09:10:53;;;;;;;5.82;2.65;;;24.30;89.40;;;;;;5117929;27;20043;-60
2020/12/04 09:13:21;;;;;;;11.57;2.92;;;24.20;90.50;;;;;;5136634;27;20054;-64
2020/12/04 09:15:49;;;;;;;7.43;3.05;;;24.10;91.20;;;;;;5135311;27;20019;-64
2020/12/04 09:18:17;;;;;;;9.13;2.70;;;24.00;92.10;;;;;;5136777;27;20027;-64
2020/12/04 09:20:45;;;;;;;8.65;3.00;;;23.90;92.40;;;;;;5118172;27;20027;-62
2020/12/04 09:23:13;;;;;;;6.88;2.97;;;23.80;92.60;;;;;;5136573;27;20022;-61
2020/12/04 09:25:41;;;;;;;11.55;2.90;;;23.60;93.00;;;;;;5137207;27;20367;-66
2020/12/04 09:28:09;;;;;;;6.05;2.90;;;23.60;93.70;;;;;;5136599;27;20079;-66
2020/12/04 09:30:37;;;;;;;6.72;3.15;;;23.50;94.20;;;;;;5136201;27;20047;-67
2020/12/04 09:33:06;;;;;;;6.55;2.90;;;23.40;94.40;;;;;;5136494;27;20022;-65
2020/12/04 09:35:33;;;;;;;7.65;2.72;;;23.40;94.70;;;;;;5136351;27;20066;-64
2020/12/04 09:38:02;;;;;;;7.10;3.15;;;23.20;95.10;;;;;;5136499;27;20473;-64
2020/12/04 09:40:30;;;;;;;8.35;2.95;;;23.20;95.90;;;;;;5136308;27;20015;-64
2020/12/04 09:42:58;;;;;;;7.30;3.00;;;23.10;96.10;;;;;;5117579;27;20034;-64
2020/12/04 09:45:29;;;;;;;7.72;3.33;;;23.10;96.40;;;;;;5117463;27;20026;-64
2020/12/04 09:47:57;;;;;;;5.72;2.80;;;23.00;96.50;;;;;;5117574;27;20110;-64
2020/12/04 09:50:25;;;;;;;9.05;3.65;;;22.90;97.00;;;;;;5136149;27;20421;-64
2020/12/04 09:52:53;;;;;;;5.90;2.55;;;22.80;97.10;;;;;;5136068;27;20075;-64
2020/12/04 09:55:23;;;;;;;10.93;3.35;;;22.80;96.70;;;;;;5135544;27;20050;-65
2020/12/04 09:57:51;;;;;;;9.07;3.33;;;22.80;96.70;;;;;;5136019;27;20027;-65
2020/12/04 10:00:19;;;;;;;5.10;3.10;;;22.80;96.70;;;;;;5135517;27;20057;-65
2020/12/04 10:02:47;;;;;;;8.63;3.85;;;22.90;96.20;;;;;;5135934;27;20019;-65
2020/12/04 10:05:15;;;;;;;9.88;3.75;;;22.90;96.70;;;;;;5136433;27;20022;-64
2020/12/04 10:07:43;;;;;;;5.80;3.28;;;23.00;96.50;;;;;;5135590;27;20543;-65
2020/12/04 10:10:12;;;;;;;8.18;3.83;;;23.00;97.40;;;;;;5135470;27;20037;-65
2020/12/04 10:12:40;;;;;;;7.68;3.00;;;23.00;97.00;;;;;;5135459;27;20099;-65
2020/12/04 10:15:08;;;;;;;9.57;3.75;;;23.00;97.70;;;;;;5135428;27;20106;-65
2020/12/04 10:17:36;;;;;;;6.50;3.25;;;22.90;97.60;;;;;;5135377;27;20047;-65
2020/12/04 10:20:04;;;;;;;7.22;3.58;;;22.90;97.80;;;;;;5135560;27;20024;-65
2020/12/04 10:22:32;;;;;;;7.35;3.70;;;22.80;98.00;;;;;;5117346;27;20320;-65
2020/12/04 10:25:00;;;;;;;13.88;3.92;;;22.80;98.50;;;;;;5135551;27;20019;-65
2020/12/04 10:27:29;;;;;;;10.55;4.35;;;22.80;99.90;;;;;;5135003;27;20019;-65
2020/12/04 10:29:57;;;;;;;9.50;4.13;;;22.70;99.90;;;;;;5135048;27;20160;-66
2020/12/04 10:32:24;;;;;;;13.95;4.55;;;22.70;99.90;;;;;;5135210;27;20479;-66
2020/12/04 10:34:53;;;;;;;8.50;4.32;;;22.70;99.90;;;;;;5135656;27;20023;-65
2020/12/04 10:37:21;;;;;;;9.85;4.30;;;22.60;99.90;;;;;;5135006;27;20075;-65
2020/12/04 10:39:49;;;;;;;9.70;4.95;;;22.60;99.90;;;;;;5134941;27;20019;-65
2020/12/04 10:42:17;;;;;;;10.48;4.63;;;22.60;99.90;;;;;;5134916;27;20048;-65
2020/12/04 10:44:45;;;;;;;11.80;5.78;;;22.50;99.90;;;;;;5135502;27;20022;-65
2020/12/04 10:47:13;;;;;;;13.93;5.40;;;22.50;99.90;;;;;;5116968;27;20084;-63
2020/12/04 10:49:41;;;;;;;11.35;6.03;;;22.40;99.90;;;;;;5116405;27;20026;-65
2020/12/04 10:52:10;;;;;;;13.93;6.10;;;22.40;99.90;;;;;;5135048;27;20107;-63
2020/12/04 10:54:38;;;;;;;13.65;6.63;;;22.40;99.90;;;;;;5134582;27;20023;-63
2020/12/04 10:57:06;;;;;;;13.27;6.43;;;22.30;99.90;;;;;;5100848;28;20507;-64
2020/12/04 10:59:34;;;;;;;10.75;6.10;;;22.20;99.90;;;;;;5114312;28;20027;-64
2020/12/04 11:02:13;;;;;;;14.40;7.05;;;22.20;99.90;;;;;;5114041;28;20026;-64
2020/12/04 11:07:29;;;;;;;16.45;6.90;;;22.10;99.90;;;;;;5091639;28;20028;-63
2020/12/04 11:09:57;;;;;;;16.08;7.65;;;22.10;99.90;;;;;;5091707;28;20148;-64
2020/12/04 11:12:25;;;;;;;15.63;7.20;;;22.00;99.90;;;;;;5091643;28;20073;-63
2020/12/04 11:14:54;;;;;;;22.48;7.75;;;22.00;99.90;;;;;;5091420;28;20499;-63
2020/12/04 11:17:22;;;;;;;13.30;6.32;;;22.00;99.90;;;;;;5074578;28;20126;-64
2020/12/04 11:19:51;;;;;;;18.33;8.27;;;22.00;99.90;;;;;;5091765;28;20106;-64
2020/12/04 11:22:20;;;;;;;15.07;7.43;;;22.00;99.90;;;;;;5091655;28;20055;-64
2020/12/04 11:24:48;;;;;;;15.57;7.32;;;22.00;99.90;;;;;;5091287;28;20404;-64
2020/12/04 11:27:17;;;;;;;23.33;7.65;;;22.00;99.90;;;;;;5091338;28;20427;-64
2020/12/04 11:29:45;;;;;;;18.17;5.65;;;22.00;99.90;;;;;;5074549;28;20020;-63
2020/12/04 11:32:13;;;;;;;24.52;6.40;;;21.90;99.90;;;;;;5091253;28;20504;-63
2020/12/04 11:34:42;;;;;;;20.90;4.72;;;21.90;99.90;;;;;;5074941;28;20025;-63
2020/12/04 11:37:11;;;;;;;20.42;6.13;;;21.80;99.90;;;;;;5091582;28;20051;-63
2020/12/04 11:39:40;;;;;;;26.15;6.90;;;21.80;99.90;;;;;;5094412;28;20036;-64
2020/12/04 11:42:10;;;;;;;23.85;5.75;;;21.70;99.90;;;;;;5061692;28;20498;-64
2020/12/04 11:44:38;;;;;;;22.53;6.00;;;21.70;99.90;;;;;;5095501;28;20039;-63
2020/12/04 11:47:06;;;;;;;24.27;5.60;;;21.60;99.90;;;;;;5095233;28;20334;-63
2020/12/04 11:49:36;;;;;;;27.55;5.97;;;21.60;99.90;;;;;;5095266;28;20032;-63
2020/12/04 11:52:05;;;;;;;28.10;5.87;;;21.60;99.90;;;;;;5095146;28;20031;-64
2020/12/04 11:54:33;;;;;;;24.08;4.53;;;21.60;99.90;;;;;;5095087;28;20111;-64
2020/12/04 11:57:01;;;;;;;26.02;5.20;;;21.60;99.90;;;;;;5095011;28;20052;-64
2020/12/04 11:59:29;;;;;;;23.65;5.15;;;21.60;99.90;;;;;;5094962;28;20032;-64
2020/12/04 12:01:57;;;;;;;26.25;4.95;;;21.60;99.90;;;;;;5095276;28;20032;-63
2020/12/04 12:04:25;;;;;;;17.70;4.13;;;21.60;99.90;;;;;;5094980;28;20043;-64
2020/12/04 12:06:55;;;;;;;24.13;5.45;;;21.50;99.90;;;;;;5117712;28;20043;-63
2020/12/04 12:09:27;;;;;;;24.30;5.78;;;21.60;99.90;;;;;;5117636;28;20066;-63
2020/12/04 12:11:55;;;;;;;25.85;5.25;;;21.50;99.90;;;;;;5117613;28;20149;-63
2020/12/04 12:14:23;;;;;;;21.60;4.70;;;21.50;99.90;;;;;;5117274;28;20412;-64
2020/12/04 12:16:52;;;;;;;26.08;5.20;;;21.50;99.90;;;;;;5117232;28;20020;-63
2020/12/04 12:19:20;;;;;;;23.40;4.85;;;21.50;99.90;;;;;;5117060;28;20024;-63
2020/12/04 12:21:49;;;;;;;20.40;4.78;;;21.40;99.90;;;;;;5117414;28;20059;-64
2020/12/04 12:24:17;;;;;;;22.27;5.18;;;21.40;99.90;;;;;;5117169;28;20522;-64
2020/12/04 12:26:50;;;;;;;29.88;6.35;;;21.40;99.90;;;;;;5117060;28;20023;-63
2020/12/04 12:29:19;;;;;;;27.05;4.85;;;21.40;99.90;;;;;;5116943;28;20027;-64
2020/12/04 12:31:47;;;;;;;21.42;4.45;;;21.40;99.90;;;;;;5117296;28;20030;-63
2020/12/04 12:34:15;;;;;;;25.70;4.80;;;21.40;99.90;;;;;;5116924;28;20029;-63
2020/12/04 12:36:43;;;;;;;26.58;5.00;;;21.40;99.90;;;;;;5116914;28;20020;-63
2020/12/04 12:39:11;;;;;;;24.05;4.95;;;21.40;99.90;;;;;;5116757;28;20101;-63
2020/12/04 12:41:39;;;;;;;24.25;5.85;;;21.40;99.90;;;;;;5116783;28;20090;-63
2020/12/04 12:44:08;;;;;;;26.65;6.15;;;21.40;99.90;;;;;;5116715;28;20022;-63
2020/12/04 12:46:40;;;;;;;26.60;5.38;;;21.40;99.90;;;;;;5116748;28;20015;-63
2020/12/04 12:49:08;;;;;;;22.27;4.97;;;21.40;99.90;;;;;;5098365;28;20050;-63
2020/12/04 12:51:36;;;;;;;21.75;4.35;;;21.30;99.90;;;;;;5116902;28;20032;-64
2020/12/04 12:54:05;;;;;;;22.40;4.38;;;21.30;99.90;;;;;;5116825;28;20096;-63
2020/12/04 12:56:33;;;;;;;21.80;4.22;;;21.30;99.90;;;;;;5111877;28;20104;-63
2020/12/04 12:59:01;;;;;;;23.30;4.88;;;21.30;99.90;;;;;;5116459;28;20100;-63
2020/12/04 13:01:29;;;;;;;16.90;4.45;;;21.30;99.90;;;;;;5116661;28;20035;-63